sensor_id;sensor_type;location;lat;lon;timestamp;temperature;humidity
7341;DHT22;6870;50.944;6.932;2022-08-19T00:01:56;26.90;28.20
7341;DHT22;6870;50.944;6.932;2022-08-19T00:04:29;27.30;28.40
7341;DHT22;6870;50.944;6.932;2022-08-19T00:06:59;27.00;28.20
7341;DHT22;6870;50.944;6.932;2022-08-19T00:09:28;26.90;28.30
7341;DHT22;6870;50.944;6.932;2022-08-19T00:11:57;26.90;28.20
7341;DHT22;6870;50.944;6.932;2022-08-19T00:14:28;27.20;28.50
7341;DHT22;6870;50.944;6.932;2022-08-19T00:16:59;26.90;28.30
7341;DHT22;6870;50.944;6.932;2022-08-19T00:19:28;26.90;28.30
7341;DHT22;6870;50.944;6.932;2022-08-19T00:21:57;27.00;28.40
7341;DHT22;6870;50.944;6.932;2022-08-19T00:24:25;26.90;28.40
7341;DHT22;6870;50.944;6.932;2022-08-19T00:26:56;27.20;28.80
7341;DHT22;6870;50.944;6.932;2022-08-19T00:29:46;27.00;28.80
7341;DHT22;6870;50.944;6.932;2022-08-19T00:32:18;26.90;28.80
7341;DHT22;6870;50.944;6.932;2022-08-19T00:34:47;26.90;28.90
7341;DHT22;6870;50.944;6.932;2022-08-19T00:37:15;26.90;28.80
7341;DHT22;6870;50.944;6.932;2022-08-19T00:39:43;26.80;28.90
7341;DHT22;6870;50.944;6.932;2022-08-19T00:42:15;27.20;29.10
7341;DHT22;6870;50.944;6.932;2022-08-19T00:44:43;27.00;29.10
7341;DHT22;6870;50.944;6.932;2022-08-19T00:47:14;27.00;29.10
7341;DHT22;6870;50.944;6.932;2022-08-19T00:49:45;26.90;29.00
7341;DHT22;6870;50.944;6.932;2022-08-19T00:52:21;26.90;29.00
7341;DHT22;6870;50.944;6.932;2022-08-19T00:54:51;26.80;29.00
7341;DHT22;6870;50.944;6.932;2022-08-19T00:57:24;26.80;29.10
7341;DHT22;6870;50.944;6.932;2022-08-19T00:59:56;26.80;29.10
7341;DHT22;6870;50.944;6.932;2022-08-19T01:02:31;26.80;29.20
7341;DHT22;6870;50.944;6.932;2022-08-19T01:05:02;26.80;29.20
7341;DHT22;6870;50.944;6.932;2022-08-19T01:07:34;26.70;29.30
7341;DHT22;6870;50.944;6.932;2022-08-19T01:10:05;26.80;29.30
7341;DHT22;6870;50.944;6.932;2022-08-19T01:12:38;26.90;29.40
7341;DHT22;6870;50.944;6.932;2022-08-19T01:15:10;26.90;29.40
7341;DHT22;6870;50.944;6.932;2022-08-19T01:17:42;27.00;29.50
7341;DHT22;6870;50.944;6.932;2022-08-19T01:20:12;27.20;29.50
7341;DHT22;6870;50.944;6.932;2022-08-19T01:22:46;26.70;29.30
7341;DHT22;6870;50.944;6.932;2022-08-19T01:25:18;26.80;29.40
7341;DHT22;6870;50.944;6.932;2022-08-19T01:27:51;26.80;29.30
7341;DHT22;6870;50.944;6.932;2022-08-19T01:30:23;26.80;29.40
7341;DHT22;6870;50.944;6.932;2022-08-19T01:32:54;26.80;29.30
7341;DHT22;6870;50.944;6.932;2022-08-19T01:35:24;27.10;29.60
7341;DHT22;6870;50.944;6.932;2022-08-19T01:37:56;26.70;29.50
7341;DHT22;6870;50.944;6.932;2022-08-19T01:40:30;27.00;29.70
7341;DHT22;6870;50.944;6.932;2022-08-19T01:43:00;27.10;29.70
7341;DHT22;6870;50.944;6.932;2022-08-19T01:45:31;26.70;29.50
7341;DHT22;6870;50.944;6.932;2022-08-19T01:48:01;26.80;29.60
7341;DHT22;6870;50.944;6.932;2022-08-19T01:50:31;27.10;29.90
7341;DHT22;6870;50.944;6.932;2022-08-19T01:53:04;26.80;29.80
7341;DHT22;6870;50.944;6.932;2022-08-19T01:55:38;26.80;29.80
7341;DHT22;6870;50.944;6.932;2022-08-19T01:58:12;26.80;29.80
7341;DHT22;6870;50.944;6.932;2022-08-19T02:00:43;26.80;29.90
7341;DHT22;6870;50.944;6.932;2022-08-19T02:03:13;26.70;29.90
7341;DHT22;6870;50.944;6.932;2022-08-19T02:05:41;26.70;29.90
7341;DHT22;6870;50.944;6.932;2022-08-19T02:08:12;26.70;29.90
7341;DHT22;6870;50.944;6.932;2022-08-19T02:10:42;26.80;30.00
7341;DHT22;6870;50.944;6.932;2022-08-19T02:13:11;27.00;30.10
7341;DHT22;6870;50.944;6.932;2022-08-19T02:15:41;26.60;29.90
7341;DHT22;6870;50.944;6.932;2022-08-19T02:18:09;26.90;30.00
7341;DHT22;6870;50.944;6.932;2022-08-19T02:20:39;26.70;29.90
7341;DHT22;6870;50.944;6.932;2022-08-19T02:23:10;26.80;30.00
7341;DHT22;6870;50.944;6.932;2022-08-19T02:25:43;26.90;30.10
7341;DHT22;6870;50.944;6.932;2022-08-19T02:28:12;26.60;30.00
7341;DHT22;6870;50.944;6.932;2022-08-19T02:30:45;26.70;30.00
7341;DHT22;6870;50.944;6.932;2022-08-19T02:33:15;26.70;30.10
7341;DHT22;6870;50.944;6.932;2022-08-19T02:35:45;26.90;30.20
7341;DHT22;6870;50.944;6.932;2022-08-19T02:38:15;26.70;30.80
7341;DHT22;6870;50.944;6.932;2022-08-19T02:40:56;26.60;30.10
7341;DHT22;6870;50.944;6.932;2022-08-19T02:43:29;26.70;30.10
7341;DHT22;6870;50.944;6.932;2022-08-19T02:46:00;26.60;30.20
7341;DHT22;6870;50.944;6.932;2022-08-19T02:48:29;26.50;30.80
7341;DHT22;6870;50.944;6.932;2022-08-19T02:50:59;26.90;30.40
7341;DHT22;6870;50.944;6.932;2022-08-19T02:53:29;26.60;30.20
7341;DHT22;6870;50.944;6.932;2022-08-19T02:55:58;26.50;30.10
7341;DHT22;6870;50.944;6.932;2022-08-19T02:58:26;26.80;30.30
7341;DHT22;6870;50.944;6.932;2022-08-19T03:00:55;26.70;30.30
7341;DHT22;6870;50.944;6.932;2022-08-19T03:03:24;26.40;30.10
7341;DHT22;6870;50.944;6.932;2022-08-19T03:06:03;26.70;30.50
7341;DHT22;6870;50.944;6.932;2022-08-19T03:08:34;26.90;30.60
7341;DHT22;6870;50.944;6.932;2022-08-19T03:11:03;26.70;30.60
7341;DHT22;6870;50.944;6.932;2022-08-19T03:13:32;26.80;30.50
7341;DHT22;6870;50.944;6.932;2022-08-19T03:16:05;26.70;30.50
7341;DHT22;6870;50.944;6.932;2022-08-19T03:18:33;26.70;30.30
7341;DHT22;6870;50.944;6.932;2022-08-19T03:21:02;27.00;30.70
7341;DHT22;6870;50.944;6.932;2022-08-19T03:23:30;26.90;30.70
7341;DHT22;6870;50.944;6.932;2022-08-19T03:26:03;26.80;31.60
7341;DHT22;6870;50.944;6.932;2022-08-19T03:28:43;26.80;30.90
7341;DHT22;6870;50.944;6.932;2022-08-19T03:31:19;26.70;30.70
7341;DHT22;6870;50.944;6.932;2022-08-19T03:34:10;26.70;30.60
7341;DHT22;6870;50.944;6.932;2022-08-19T03:36:40;26.60;30.60
7341;DHT22;6870;50.944;6.932;2022-08-19T03:39:10;26.60;30.40
7341;DHT22;6870;50.944;6.932;2022-08-19T03:41:43;26.70;30.50
7341;DHT22;6870;50.944;6.932;2022-08-19T03:44:16;26.70;30.60
7341;DHT22;6870;50.944;6.932;2022-08-19T03:46:47;26.70;30.60
7341;DHT22;6870;50.944;6.932;2022-08-19T03:49:18;26.60;30.40
7341;DHT22;6870;50.944;6.932;2022-08-19T03:51:47;26.60;30.50
7341;DHT22;6870;50.944;6.932;2022-08-19T03:54:19;26.70;30.60
7341;DHT22;6870;50.944;6.932;2022-08-19T03:56:53;26.50;30.60
7341;DHT22;6870;50.944;6.932;2022-08-19T03:59:25;26.70;30.70
7341;DHT22;6870;50.944;6.932;2022-08-19T04:01:56;26.80;30.80
7341;DHT22;6870;50.944;6.932;2022-08-19T04:04:26;26.60;30.50
7341;DHT22;6870;50.944;6.932;2022-08-19T04:06:56;26.80;30.80
7341;DHT22;6870;50.944;6.932;2022-08-19T04:09:24;26.50;30.50
7341;DHT22;6870;50.944;6.932;2022-08-19T04:11:56;26.70;31.10
7341;DHT22;6870;50.944;6.932;2022-08-19T04:14:27;26.80;31.40
7341;DHT22;6870;50.944;6.932;2022-08-19T04:16:57;26.40;31.00
7341;DHT22;6870;50.944;6.932;2022-08-19T04:19:26;26.40;31.00
7341;DHT22;6870;50.944;6.932;2022-08-19T04:21:56;26.60;31.20
7341;DHT22;6870;50.944;6.932;2022-08-19T04:24:25;26.70;31.30
7341;DHT22;6870;50.944;6.932;2022-08-19T04:26:55;26.60;31.20
7341;DHT22;6870;50.944;6.932;2022-08-19T04:29:24;26.60;31.20
7341;DHT22;6870;50.944;6.932;2022-08-19T04:31:55;26.60;31.20
7341;DHT22;6870;50.944;6.932;2022-08-19T04:34:28;26.70;32.10
7341;DHT22;6870;50.944;6.932;2022-08-19T04:36:57;26.60;31.30
7341;DHT22;6870;50.944;6.932;2022-08-19T04:39:28;26.60;32.00
7341;DHT22;6870;50.944;6.932;2022-08-19T04:42:13;26.60;31.20
7341;DHT22;6870;50.944;6.932;2022-08-19T04:44:59;26.70;31.30
7341;DHT22;6870;50.944;6.932;2022-08-19T04:47:31;26.50;31.10
7341;DHT22;6870;50.944;6.932;2022-08-19T04:50:19;26.70;31.30
7341;DHT22;6870;50.944;6.932;2022-08-19T04:52:50;26.60;31.20
7341;DHT22;6870;50.944;6.932;2022-08-19T04:55:20;26.50;31.30
7341;DHT22;6870;50.944;6.932;2022-08-19T04:57:49;26.80;31.30
7341;DHT22;6870;50.944;6.932;2022-08-19T05:00:18;26.60;31.20
7341;DHT22;6870;50.944;6.932;2022-08-19T05:02:46;26.50;31.10
7341;DHT22;6870;50.944;6.932;2022-08-19T05:05:16;26.80;31.40
7341;DHT22;6870;50.944;6.932;2022-08-19T05:07:44;26.90;31.50
7341;DHT22;6870;50.944;6.932;2022-08-19T05:10:13;26.60;31.30
7341;DHT22;6870;50.944;6.932;2022-08-19T05:12:41;26.70;31.30
7341;DHT22;6870;50.944;6.932;2022-08-19T05:15:11;26.50;31.20
7341;DHT22;6870;50.944;6.932;2022-08-19T05:17:39;26.80;31.30
7341;DHT22;6870;50.944;6.932;2022-08-19T05:20:29;26.80;31.40
7341;DHT22;6870;50.944;6.932;2022-08-19T05:23:15;26.60;31.20
7341;DHT22;6870;50.944;6.932;2022-08-19T05:25:48;26.60;31.20
7341;DHT22;6870;50.944;6.932;2022-08-19T05:28:18;26.60;31.30
7341;DHT22;6870;50.944;6.932;2022-08-19T05:30:48;26.80;31.30
7341;DHT22;6870;50.944;6.932;2022-08-19T05:33:18;26.60;31.20
7341;DHT22;6870;50.944;6.932;2022-08-19T05:35:47;26.70;31.40
7341;DHT22;6870;50.944;6.932;2022-08-19T05:38:16;26.70;31.30
7341;DHT22;6870;50.944;6.932;2022-08-19T05:40:45;26.50;31.10
7341;DHT22;6870;50.944;6.932;2022-08-19T05:43:14;26.70;31.30
7341;DHT22;6870;50.944;6.932;2022-08-19T05:45:43;26.60;31.20
7341;DHT22;6870;50.944;6.932;2022-08-19T05:48:13;26.70;31.30
7341;DHT22;6870;50.944;6.932;2022-08-19T05:50:44;26.40;31.90
7341;DHT22;6870;50.944;6.932;2022-08-19T05:53:13;26.60;31.20
7341;DHT22;6870;50.944;6.932;2022-08-19T05:55:43;26.50;31.10
7341;DHT22;6870;50.944;6.932;2022-08-19T05:58:11;26.70;31.30
7341;DHT22;6870;50.944;6.932;2022-08-19T06:00:42;26.50;31.10
7341;DHT22;6870;50.944;6.932;2022-08-19T06:03:11;26.60;31.20
7341;DHT22;6870;50.944;6.932;2022-08-19T06:05:41;26.70;31.10
7341;DHT22;6870;50.944;6.932;2022-08-19T06:08:19;26.80;31.20
7341;DHT22;6870;50.944;6.932;2022-08-19T06:11:19;26.70;30.50
7341;DHT22;6870;50.944;6.932;2022-08-19T06:13:51;26.80;30.70
7341;DHT22;6870;50.944;6.932;2022-08-19T06:16:25;26.70;31.00
7341;DHT22;6870;50.944;6.932;2022-08-19T06:18:58;26.60;31.20
7341;DHT22;6870;50.944;6.932;2022-08-19T06:21:29;26.60;31.20
7341;DHT22;6870;50.944;6.932;2022-08-19T06:23:58;26.60;31.20
7341;DHT22;6870;50.944;6.932;2022-08-19T06:26:26;26.50;31.60
7341;DHT22;6870;50.944;6.932;2022-08-19T06:28:55;26.60;32.20
7341;DHT22;6870;50.944;6.932;2022-08-19T06:31:26;26.40;32.70
7341;DHT22;6870;50.944;6.932;2022-08-19T06:33:59;26.10;32.30
7341;DHT22;6870;50.944;6.932;2022-08-19T06:36:32;26.50;32.50
7341;DHT22;6870;50.944;6.932;2022-08-19T06:39:04;26.20;32.50
7341;DHT22;6870;50.944;6.932;2022-08-19T06:41:36;26.40;32.60
7341;DHT22;6870;50.944;6.932;2022-08-19T06:44:13;26.10;32.80
7341;DHT22;6870;50.944;6.932;2022-08-19T06:46:42;26.00;32.70
7341;DHT22;6870;50.944;6.932;2022-08-19T06:49:21;26.50;33.30
7341;DHT22;6870;50.944;6.932;2022-08-19T06:51:50;26.20;32.90
7341;DHT22;6870;50.944;6.932;2022-08-19T06:54:19;26.20;33.10
7341;DHT22;6870;50.944;6.932;2022-08-19T06:56:47;26.50;33.20
7341;DHT22;6870;50.944;6.932;2022-08-19T06:59:18;26.10;33.00
7341;DHT22;6870;50.944;6.932;2022-08-19T07:01:49;26.20;33.20
7341;DHT22;6870;50.944;6.932;2022-08-19T07:04:22;26.20;33.20
7341;DHT22;6870;50.944;6.932;2022-08-19T07:06:58;26.00;33.00
7341;DHT22;6870;50.944;6.932;2022-08-19T07:09:46;26.10;33.00
7341;DHT22;6870;50.944;6.932;2022-08-19T07:12:27;26.20;33.40
7341;DHT22;6870;50.944;6.932;2022-08-19T07:14:58;26.00;33.80
7341;DHT22;6870;50.944;6.932;2022-08-19T07:17:27;26.00;34.50
7341;DHT22;6870;50.944;6.932;2022-08-19T07:19:58;25.90;34.00
7341;DHT22;6870;50.944;6.932;2022-08-19T07:22:35;26.10;34.00
7341;DHT22;6870;50.944;6.932;2022-08-19T07:25:05;26.10;33.80
7341;DHT22;6870;50.944;6.932;2022-08-19T07:27:35;26.00;33.60
7341;DHT22;6870;50.944;6.932;2022-08-19T07:30:06;26.10;33.70
7341;DHT22;6870;50.944;6.932;2022-08-19T07:32:38;26.40;33.80
7341;DHT22;6870;50.944;6.932;2022-08-19T07:35:09;26.50;33.30
7341;DHT22;6870;50.944;6.932;2022-08-19T07:37:37;26.10;32.70
7341;DHT22;6870;50.944;6.932;2022-08-19T07:40:11;26.30;33.10
7341;DHT22;6870;50.944;6.932;2022-08-19T07:42:39;26.30;33.20
7341;DHT22;6870;50.944;6.932;2022-08-19T07:45:09;26.10;33.10
7341;DHT22;6870;50.944;6.932;2022-08-19T07:47:37;26.10;33.20
7341;DHT22;6870;50.944;6.932;2022-08-19T07:50:18;26.30;33.30
7341;DHT22;6870;50.944;6.932;2022-08-19T07:52:48;26.20;33.30
7341;DHT22;6870;50.944;6.932;2022-08-19T07:55:21;26.10;32.90
7341;DHT22;6870;50.944;6.932;2022-08-19T07:58:10;26.10;33.00
7341;DHT22;6870;50.944;6.932;2022-08-19T08:00:40;26.40;33.00
7341;DHT22;6870;50.944;6.932;2022-08-19T08:03:08;26.40;33.00
7341;DHT22;6870;50.944;6.932;2022-08-19T08:05:38;26.20;32.90
7341;DHT22;6870;50.944;6.932;2022-08-19T08:08:24;25.90;33.00
7341;DHT22;6870;50.944;6.932;2022-08-19T08:11:19;26.50;33.80
7341;DHT22;6870;50.944;6.932;2022-08-19T08:13:49;26.30;33.70
7341;DHT22;6870;50.944;6.932;2022-08-19T08:16:26;26.20;33.60
7341;DHT22;6870;50.944;6.932;2022-08-19T08:18:57;26.30;33.60
7341;DHT22;6870;50.944;6.932;2022-08-19T08:21:28;26.40;33.80
7341;DHT22;6870;50.944;6.932;2022-08-19T08:23:56;26.00;33.80
7341;DHT22;6870;50.944;6.932;2022-08-19T08:26:29;26.20;34.70
7341;DHT22;6870;50.944;6.932;2022-08-19T08:29:00;26.30;34.10
7341;DHT22;6870;50.944;6.932;2022-08-19T08:31:38;25.90;33.70
7341;DHT22;6870;50.944;6.932;2022-08-19T08:34:07;26.10;33.60
7341;DHT22;6870;50.944;6.932;2022-08-19T08:36:39;26.50;33.40
7341;DHT22;6870;50.944;6.932;2022-08-19T08:39:09;26.50;33.10
7341;DHT22;6870;50.944;6.932;2022-08-19T08:41:46;26.60;33.10
7341;DHT22;6870;50.944;6.932;2022-08-19T08:44:21;26.20;32.90
7341;DHT22;6870;50.944;6.932;2022-08-19T08:46:53;26.40;32.80
7341;DHT22;6870;50.944;6.932;2022-08-19T08:49:29;26.50;32.70
7341;DHT22;6870;50.944;6.932;2022-08-19T08:52:06;26.60;33.00
7341;DHT22;6870;50.944;6.932;2022-08-19T08:54:40;26.60;32.90
7341;DHT22;6870;50.944;6.932;2022-08-19T08:57:26;26.60;33.10
7341;DHT22;6870;50.944;6.932;2022-08-19T09:00:09;26.70;32.90
7341;DHT22;6870;50.944;6.932;2022-08-19T09:02:41;26.50;32.70
7341;DHT22;6870;50.944;6.932;2022-08-19T09:05:10;26.40;32.30
7341;DHT22;6870;50.944;6.932;2022-08-19T09:07:49;26.70;32.30
7341;DHT22;6870;50.944;6.932;2022-08-19T09:10:25;26.80;32.10
7341;DHT22;6870;50.944;6.932;2022-08-19T09:13:05;27.10;31.70
7341;DHT22;6870;50.944;6.932;2022-08-19T09:15:42;26.80;31.30
7341;DHT22;6870;50.944;6.932;2022-08-19T09:18:14;26.90;31.40
7341;DHT22;6870;50.944;6.932;2022-08-19T09:20:46;26.90;31.00
7341;DHT22;6870;50.944;6.932;2022-08-19T09:23:16;26.90;30.70
7341;DHT22;6870;50.944;6.932;2022-08-19T09:25:53;26.90;30.50
7341;DHT22;6870;50.944;6.932;2022-08-19T09:28:21;27.00;30.40
7341;DHT22;6870;50.944;6.932;2022-08-19T09:30:53;27.20;30.40
7341;DHT22;6870;50.944;6.932;2022-08-19T09:33:21;27.50;30.40
7341;DHT22;6870;50.944;6.932;2022-08-19T09:35:49;27.20;30.00
7341;DHT22;6870;50.944;6.932;2022-08-19T09:38:21;27.20;29.60
7341;DHT22;6870;50.944;6.932;2022-08-19T09:40:49;27.10;29.40
7341;DHT22;6870;50.944;6.932;2022-08-19T09:43:17;27.20;29.20
7341;DHT22;6870;50.944;6.932;2022-08-19T09:46:06;27.10;28.80
7341;DHT22;6870;50.944;6.932;2022-08-19T09:48:36;27.30;28.70
7341;DHT22;6870;50.944;6.932;2022-08-19T09:51:05;27.20;28.50
7341;DHT22;6870;50.944;6.932;2022-08-19T09:53:39;27.50;28.20
7341;DHT22;6870;50.944;6.932;2022-08-19T09:56:07;27.20;28.20
7341;DHT22;6870;50.944;6.932;2022-08-19T09:58:36;27.20;27.90
7341;DHT22;6870;50.944;6.932;2022-08-19T10:01:06;27.40;27.70
7341;DHT22;6870;50.944;6.932;2022-08-19T10:03:36;27.70;27.30
7341;DHT22;6870;50.944;6.932;2022-08-19T10:06:05;27.60;26.70
7341;DHT22;6870;50.944;6.932;2022-08-19T10:08:45;27.90;26.60
7341;DHT22;6870;50.944;6.932;2022-08-19T10:11:17;27.60;26.40
7341;DHT22;6870;50.944;6.932;2022-08-19T10:14:01;28.10;26.70
7341;DHT22;6870;50.944;6.932;2022-08-19T10:16:30;27.60;26.40
7341;DHT22;6870;50.944;6.932;2022-08-19T10:19:05;28.20;26.70
7341;DHT22;6870;50.944;6.932;2022-08-19T10:21:33;27.60;26.40
7341;DHT22;6870;50.944;6.932;2022-08-19T10:24:05;27.60;26.40
7341;DHT22;6870;50.944;6.932;2022-08-19T10:26:37;28.00;26.60
7341;DHT22;6870;50.944;6.932;2022-08-19T10:29:08;28.10;26.70
7341;DHT22;6870;50.944;6.932;2022-08-19T10:31:36;27.90;26.60
7341;DHT22;6870;50.944;6.932;2022-08-19T10:34:25;27.80;26.50
7341;DHT22;6870;50.944;6.932;2022-08-19T10:36:55;28.00;26.60
7341;DHT22;6870;50.944;6.932;2022-08-19T10:39:29;27.90;26.60
7341;DHT22;6870;50.944;6.932;2022-08-19T10:42:10;28.10;26.70
7341;DHT22;6870;50.944;6.932;2022-08-19T10:44:40;27.80;26.50
7341;DHT22;6870;50.944;6.932;2022-08-19T10:47:09;28.10;26.70
7341;DHT22;6870;50.944;6.932;2022-08-19T10:49:51;28.00;26.30
7341;DHT22;6870;50.944;6.932;2022-08-19T10:52:38;28.10;26.70
7341;DHT22;6870;50.944;6.932;2022-08-19T10:55:19;28.20;26.70
7341;DHT22;6870;50.944;6.932;2022-08-19T10:58:11;28.20;26.70
7341;DHT22;6870;50.944;6.932;2022-08-19T11:00:40;28.30;26.80
7341;DHT22;6870;50.944;6.932;2022-08-19T11:03:09;27.90;26.60
7341;DHT22;6870;50.944;6.932;2022-08-19T11:05:37;28.00;26.60
7341;DHT22;6870;50.944;6.932;2022-08-19T11:08:06;28.40;26.90
7341;DHT22;6870;50.944;6.932;2022-08-19T11:10:51;28.30;26.00
7341;DHT22;6870;50.944;6.932;2022-08-19T11:13:24;28.60;26.00
7341;DHT22;6870;50.944;6.932;2022-08-19T11:15:57;28.80;26.10
7341;DHT22;6870;50.944;6.932;2022-08-19T11:18:34;28.60;25.60
7341;DHT22;6870;50.944;6.932;2022-08-19T11:21:08;28.60;25.40
7341;DHT22;6870;50.944;6.932;2022-08-19T11:23:39;28.40;25.20
7341;DHT22;6870;50.944;6.932;2022-08-19T11:26:09;28.90;25.40
7341;DHT22;6870;50.944;6.932;2022-08-19T11:28:38;28.70;25.00
7341;DHT22;6870;50.944;6.932;2022-08-19T11:31:10;29.10;25.30
7341;DHT22;6870;50.944;6.932;2022-08-19T11:33:39;29.00;25.30
7341;DHT22;6870;50.944;6.932;2022-08-19T11:36:13;28.50;25.00
7341;DHT22;6870;50.944;6.932;2022-08-19T11:38:42;28.70;25.10
7341;DHT22;6870;50.944;6.932;2022-08-19T11:41:12;29.10;25.10
7341;DHT22;6870;50.944;6.932;2022-08-19T11:43:41;29.10;24.90
7341;DHT22;6870;50.944;6.932;2022-08-19T11:46:11;28.80;24.70
7341;DHT22;6870;50.944;6.932;2022-08-19T11:48:42;29.10;24.90
7341;DHT22;6870;50.944;6.932;2022-08-19T11:51:13;29.10;25.10
7341;DHT22;6870;50.944;6.932;2022-08-19T11:53:48;28.50;25.00
7341;DHT22;6870;50.944;6.932;2022-08-19T11:56:19;28.60;25.10
7341;DHT22;6870;50.944;6.932;2022-08-19T11:58:48;29.00;25.30
7341;DHT22;6870;50.944;6.932;2022-08-19T12:01:18;28.20;25.10
7341;DHT22;6870;50.944;6.932;2022-08-19T12:03:49;28.70;25.30
7341;DHT22;6870;50.944;6.932;2022-08-19T12:06:20;28.80;24.90
7341;DHT22;6870;50.944;6.932;2022-08-19T12:08:52;29.10;24.80
7341;DHT22;6870;50.944;6.932;2022-08-19T12:11:22;28.80;24.70
7341;DHT22;6870;50.944;6.932;2022-08-19T12:13:51;29.00;24.40
7341;DHT22;6870;50.944;6.932;2022-08-19T12:16:23;29.10;24.60
7341;DHT22;6870;50.944;6.932;2022-08-19T12:18:53;29.10;24.40
7341;DHT22;6870;50.944;6.932;2022-08-19T12:21:25;29.00;24.20
7341;DHT22;6870;50.944;6.932;2022-08-19T12:23:56;29.40;24.20
7341;DHT22;6870;50.944;6.932;2022-08-19T12:26:28;29.30;23.90
7341;DHT22;6870;50.944;6.932;2022-08-19T12:28:58;29.40;23.90
7341;DHT22;6870;50.944;6.932;2022-08-19T12:31:27;29.40;23.80
7341;DHT22;6870;50.944;6.932;2022-08-19T12:33:55;29.40;23.90
7341;DHT22;6870;50.944;6.932;2022-08-19T12:36:24;29.20;23.90
7341;DHT22;6870;50.944;6.932;2022-08-19T12:38:52;29.40;23.80
7341;DHT22;6870;50.944;6.932;2022-08-19T12:41:21;29.50;23.80
7341;DHT22;6870;50.944;6.932;2022-08-19T12:43:51;29.30;23.80
7341;DHT22;6870;50.944;6.932;2022-08-19T12:46:19;29.30;24.00
7341;DHT22;6870;50.944;6.932;2022-08-19T12:48:51;29.40;24.40
7341;DHT22;6870;50.944;6.932;2022-08-19T12:51:21;29.00;24.20
7341;DHT22;6870;50.944;6.932;2022-08-19T12:53:50;29.30;24.10
7341;DHT22;6870;50.944;6.932;2022-08-19T12:56:18;29.50;24.00
7341;DHT22;6870;50.944;6.932;2022-08-19T12:58:50;29.20;23.70
7341;DHT22;6870;50.944;6.932;2022-08-19T13:01:19;29.40;23.80
7341;DHT22;6870;50.944;6.932;2022-08-19T13:03:49;29.30;23.90
7341;DHT22;6870;50.944;6.932;2022-08-19T13:06:19;29.10;23.70
7341;DHT22;6870;50.944;6.932;2022-08-19T13:08:48;29.50;23.80
7341;DHT22;6870;50.944;6.932;2022-08-19T13:11:18;29.10;24.30
7341;DHT22;6870;50.944;6.932;2022-08-19T13:13:48;29.60;24.10
7341;DHT22;6870;50.944;6.932;2022-08-19T13:16:19;29.40;24.70
7341;DHT22;6870;50.944;6.932;2022-08-19T13:18:49;29.80;24.10
7341;DHT22;6870;50.944;6.932;2022-08-19T13:21:19;29.50;23.90
7341;DHT22;6870;50.944;6.932;2022-08-19T13:23:49;29.20;23.70
7341;DHT22;6870;50.944;6.932;2022-08-19T13:26:18;29.40;23.70
7341;DHT22;6870;50.944;6.932;2022-08-19T13:28:46;29.70;24.40
7341;DHT22;6870;50.944;6.932;2022-08-19T13:31:34;29.50;23.50
7341;DHT22;6870;50.944;6.932;2022-08-19T13:34:28;29.50;23.50
7341;DHT22;6870;50.944;6.932;2022-08-19T13:36:58;29.80;23.80
7341;DHT22;6870;50.944;6.932;2022-08-19T13:39:29;29.70;23.70
7341;DHT22;6870;50.944;6.932;2022-08-19T13:41:59;29.70;23.70
7341;DHT22;6870;50.944;6.932;2022-08-19T13:44:28;29.60;23.60
7341;DHT22;6870;50.944;6.932;2022-08-19T13:47:02;29.40;23.40
7341;DHT22;6870;50.944;6.932;2022-08-19T13:49:34;29.70;23.50
7341;DHT22;6870;50.944;6.932;2022-08-19T13:52:04;29.80;23.40
7341;DHT22;6870;50.944;6.932;2022-08-19T13:54:32;29.90;23.30
7341;DHT22;6870;50.944;6.932;2022-08-19T13:57:01;29.70;23.00
7341;DHT22;6870;50.944;6.932;2022-08-19T13:59:29;29.70;23.00
7341;DHT22;6870;50.944;6.932;2022-08-19T14:01:58;29.70;22.90
7341;DHT22;6870;50.944;6.932;2022-08-19T14:04:27;29.50;22.60
7341;DHT22;6870;50.944;6.932;2022-08-19T14:06:55;29.80;22.60
7341;DHT22;6870;50.944;6.932;2022-08-19T14:09:24;29.70;22.80
7341;DHT22;6870;50.944;6.932;2022-08-19T14:11:52;29.70;22.60
7341;DHT22;6870;50.944;6.932;2022-08-19T14:14:20;29.50;22.50
7341;DHT22;6870;50.944;6.932;2022-08-19T14:16:49;29.50;22.50
7341;DHT22;6870;50.944;6.932;2022-08-19T14:19:18;30.00;22.80
7341;DHT22;6870;50.944;6.932;2022-08-19T14:21:48;29.70;22.60
7341;DHT22;6870;50.944;6.932;2022-08-19T14:24:16;29.90;22.90
7341;DHT22;6870;50.944;6.932;2022-08-19T14:26:44;29.70;22.90
7341;DHT22;6870;50.944;6.932;2022-08-19T14:29:12;29.60;22.70
7341;DHT22;6870;50.944;6.932;2022-08-19T14:31:41;29.80;22.80
7341;DHT22;6870;50.944;6.932;2022-08-19T14:34:10;29.90;22.80
7341;DHT22;6870;50.944;6.932;2022-08-19T14:36:39;29.70;22.40
7341;DHT22;6870;50.944;6.932;2022-08-19T14:39:09;30.10;22.60
7341;DHT22;6870;50.944;6.932;2022-08-19T14:41:40;29.90;22.40
7341;DHT22;6870;50.944;6.932;2022-08-19T14:44:08;29.70;22.30
7341;DHT22;6870;50.944;6.932;2022-08-19T14:46:39;29.70;22.30
7341;DHT22;6870;50.944;6.932;2022-08-19T14:49:15;30.00;22.50
7341;DHT22;6870;50.944;6.932;2022-08-19T14:51:44;29.70;22.30
7341;DHT22;6870;50.944;6.932;2022-08-19T14:54:14;29.60;22.30
7341;DHT22;6870;50.944;6.932;2022-08-19T14:56:43;29.60;22.30
7341;DHT22;6870;50.944;6.932;2022-08-19T14:59:11;29.50;22.30
7341;DHT22;6870;50.944;6.932;2022-08-19T15:01:39;29.50;22.30
7341;DHT22;6870;50.944;6.932;2022-08-19T15:04:07;29.70;22.30
7341;DHT22;6870;50.944;6.932;2022-08-19T15:06:36;29.50;22.20
7341;DHT22;6870;50.944;6.932;2022-08-19T15:09:04;29.50;22.30
7341;DHT22;6870;50.944;6.932;2022-08-19T15:11:34;29.40;22.20
7341;DHT22;6870;50.944;6.932;2022-08-19T15:14:03;29.50;22.20
7341;DHT22;6870;50.944;6.932;2022-08-19T15:16:32;29.70;22.30
7341;DHT22;6870;50.944;6.932;2022-08-19T15:19:00;29.50;22.40
7341;DHT22;6870;50.944;6.932;2022-08-19T15:21:29;29.60;22.60
7341;DHT22;6870;50.944;6.932;2022-08-19T15:23:59;29.50;22.50
7341;DHT22;6870;50.944;6.932;2022-08-19T15:26:28;29.10;22.40
7341;DHT22;6870;50.944;6.932;2022-08-19T15:29:00;29.30;22.70
7341;DHT22;6870;50.944;6.932;2022-08-19T15:31:30;29.30;22.80
7341;DHT22;6870;50.944;6.932;2022-08-19T15:34:03;29.40;22.90
7341;DHT22;6870;50.944;6.932;2022-08-19T15:36:32;29.10;23.00
7341;DHT22;6870;50.944;6.932;2022-08-19T15:39:02;29.30;23.10
7341;DHT22;6870;50.944;6.932;2022-08-19T15:41:31;29.50;23.20
7341;DHT22;6870;50.944;6.932;2022-08-19T15:44:06;29.60;23.30
7341;DHT22;6870;50.944;6.932;2022-08-19T15:46:37;29.40;23.30
7341;DHT22;6870;50.944;6.932;2022-08-19T15:49:07;29.50;23.40
7341;DHT22;6870;50.944;6.932;2022-08-19T15:51:37;28.90;23.10
7341;DHT22;6870;50.944;6.932;2022-08-19T15:54:08;29.10;23.30
7341;DHT22;6870;50.944;6.932;2022-08-19T15:56:38;28.90;23.20
7341;DHT22;6870;50.944;6.932;2022-08-19T15:59:26;29.10;23.20
7341;DHT22;6870;50.944;6.932;2022-08-19T16:02:14;29.20;23.50
7341;DHT22;6870;50.944;6.932;2022-08-19T16:05:00;29.10;23.50
7341;DHT22;6870;50.944;6.932;2022-08-19T16:07:45;29.00;23.40
7341;DHT22;6870;50.944;6.932;2022-08-19T16:10:14;29.00;23.40
7341;DHT22;6870;50.944;6.932;2022-08-19T16:12:54;29.10;23.40
7341;DHT22;6870;50.944;6.932;2022-08-19T16:15:25;29.20;23.50
7341;DHT22;6870;50.944;6.932;2022-08-19T16:17:54;29.10;23.50
7341;DHT22;6870;50.944;6.932;2022-08-19T16:20:24;29.30;23.60
7341;DHT22;6870;50.944;6.932;2022-08-19T16:22:54;29.10;23.70
7341;DHT22;6870;50.944;6.932;2022-08-19T16:25:24;28.70;23.50
7341;DHT22;6870;50.944;6.932;2022-08-19T16:27:55;28.80;23.50
7341;DHT22;6870;50.944;6.932;2022-08-19T16:30:37;29.20;23.80
7341;DHT22;6870;50.944;6.932;2022-08-19T16:33:07;28.60;23.50